createdAt,value
2019-05-05T00:01:21.804Z,3.83
2019-05-05T00:04:08.452Z,3.43
2019-05-05T00:06:36.929Z,3.60
2019-05-05T00:09:05.508Z,4.03
2019-05-05T00:11:47.878Z,3.57
2019-05-05T00:14:29.212Z,3.37
2019-05-05T00:17:02.503Z,4.13
2019-05-05T00:19:33.390Z,4.00
2019-05-05T00:22:00.887Z,3.93
2019-05-05T00:24:29.233Z,3.70
2019-05-05T00:26:57.844Z,3.70
2019-05-05T00:29:26.188Z,2.90
2019-05-05T00:31:54.790Z,2.90
2019-05-05T00:34:24.463Z,3.37
2019-05-05T00:36:55.040Z,3.90
2019-05-05T00:39:25.341Z,3.30
2019-05-05T00:41:55.346Z,2.90
2019-05-05T00:44:24.736Z,3.20
2019-05-05T00:47:15.788Z,2.70
2019-05-05T00:49:49.053Z,3.13
2019-05-05T00:52:16.462Z,3.33
2019-05-05T00:54:45.049Z,2.60
2019-05-05T00:57:14.964Z,2.70
2019-05-05T00:59:45.201Z,3.03
2019-05-05T01:02:25.091Z,2.60
2019-05-05T01:05:04.397Z,2.57
2019-05-05T01:07:32.612Z,2.83
2019-05-05T01:10:00.952Z,2.90
2019-05-05T01:12:29.325Z,3.00
2019-05-05T01:14:57.676Z,2.30
2019-05-05T01:17:26.030Z,2.73
2019-05-05T01:20:03.433Z,3.27
2019-05-05T01:22:25.106Z,2.20
2019-05-05T01:24:55.346Z,2.87
2019-05-05T01:27:25.349Z,3.00
2019-05-05T01:29:54.663Z,2.90
2019-05-05T01:32:27.061Z,2.83
2019-05-05T01:34:55.479Z,2.70
2019-05-05T01:37:34.737Z,3.30
2019-05-05T01:40:24.812Z,2.90
2019-05-05T01:42:54.739Z,2.50
2019-05-05T01:45:24.246Z,2.80
2019-05-05T01:47:54.430Z,2.30
2019-05-05T01:50:24.675Z,2.30
2019-05-05T01:52:52.906Z,2.60
2019-05-05T01:55:21.260Z,2.90
2019-05-05T01:57:50.176Z,2.70
2019-05-05T02:00:18.774Z,2.40
2019-05-05T02:02:47.757Z,2.60
2019-05-05T02:05:16.118Z,2.93
2019-05-05T02:07:45.039Z,2.40
2019-05-05T02:10:15.228Z,2.40
2019-05-05T02:12:44.762Z,2.70
2019-05-05T02:15:14.957Z,2.40
2019-05-05T02:17:44.558Z,2.20
2019-05-05T02:20:34.145Z,2.20
2019-05-05T02:23:04.534Z,2.30
2019-05-05T02:25:34.574Z,2.83
2019-05-05T02:28:04.416Z,2.03
2019-05-05T02:30:40.856Z,2.50
2019-05-05T02:33:11.828Z,2.43
2019-05-05T02:35:40.187Z,2.47
2019-05-05T02:38:08.716Z,2.63
2019-05-05T02:40:37.343Z,2.37
2019-05-05T02:43:06.518Z,1.97
2019-05-05T02:45:45.116Z,2.37
2019-05-05T02:48:15.630Z,2.50
2019-05-05T02:51:00.161Z,2.40
2019-05-05T02:53:26.516Z,2.40
2019-05-05T02:55:58.491Z,3.00
2019-05-05T02:58:27.809Z,2.57
2019-05-05T03:01:14.047Z,2.70
2019-05-05T03:03:43.817Z,2.20
2019-05-05T03:06:14.369Z,2.70
2019-05-05T03:08:44.014Z,2.13
2019-05-05T03:11:14.484Z,2.67
2019-05-05T03:13:44.227Z,2.33
2019-05-05T03:16:19.763Z,2.50
2019-05-05T03:18:48.571Z,2.27
2019-05-05T03:21:17.399Z,2.00
2019-05-05T03:23:46.011Z,2.50
2019-05-05T03:26:15.263Z,2.40
2019-05-05T03:28:47.759Z,2.23
2019-05-05T03:31:16.548Z,2.40
2019-05-05T03:33:46.065Z,2.37
2019-05-05T03:36:14.706Z,3.00
2019-05-05T03:38:44.443Z,2.57
2019-05-05T03:41:20.720Z,2.90
2019-05-05T03:44:08.219Z,2.90
2019-05-05T03:46:36.970Z,2.40
2019-05-05T03:49:05.771Z,2.37
2019-05-05T03:51:34.633Z,3.10
2019-05-05T03:54:04.353Z,2.50
2019-05-05T03:56:34.705Z,3.47
2019-05-05T03:59:04.938Z,2.47
2019-05-05T04:01:36.500Z,2.47
2019-05-05T04:04:33.652Z,2.40
2019-05-05T04:07:02.148Z,2.43
2019-05-05T04:09:30.803Z,3.27
2019-05-05T04:11:59.246Z,3.10
2019-05-05T04:14:27.630Z,2.27
2019-05-05T04:17:11.514Z,2.83
2019-05-05T04:19:43.629Z,3.73
2019-05-05T04:22:13.552Z,3.20
2019-05-05T04:24:43.600Z,2.90
2019-05-05T04:27:14.410Z,3.23
2019-05-05T04:29:43.919Z,2.50
2019-05-05T04:32:14.064Z,4.10
2019-05-05T04:34:43.882Z,2.93
2019-05-05T04:37:14.681Z,3.17
2019-05-05T04:39:44.359Z,3.27
2019-05-05T04:42:13.996Z,3.87
2019-05-05T04:44:44.619Z,2.53
2019-05-05T04:47:19.047Z,2.77
2019-05-05T04:49:59.916Z,2.97
2019-05-05T04:52:28.696Z,2.43
2019-05-05T04:54:58.167Z,2.30
2019-05-05T04:57:26.531Z,2.80
2019-05-05T04:59:54.873Z,2.90
2019-05-05T05:02:34.241Z,2.67
2019-05-05T05:05:08.632Z,2.10
2019-05-05T05:07:37.072Z,2.67
2019-05-05T05:10:05.487Z,3.00
2019-05-05T05:12:34.266Z,2.60
2019-05-05T05:15:04.301Z,2.40
2019-05-05T05:17:41.189Z,2.20
2019-05-05T05:20:10.116Z,2.10
2019-05-05T05:22:38.467Z,2.40
2019-05-05T05:25:06.896Z,2.30
2019-05-05T05:27:35.242Z,2.50
2019-05-05T05:30:04.692Z,2.10
2019-05-05T05:32:33.974Z,2.17
2019-05-05T05:35:03.664Z,1.70
2019-05-05T05:37:34.155Z,2.20
2019-05-05T05:40:14.450Z,2.10
2019-05-05T05:42:43.977Z,1.60
2019-05-05T05:45:37.111Z,1.70
2019-05-05T05:48:40.177Z,1.67
2019-05-05T05:51:11.084Z,1.93
2019-05-05T05:53:39.709Z,2.27
2019-05-05T05:56:08.394Z,2.03
2019-05-05T05:58:36.746Z,2.00
2019-05-05T06:01:05.091Z,1.87
2019-05-05T06:03:34.039Z,1.80
2019-05-05T06:06:04.774Z,1.80
2019-05-05T06:08:34.711Z,1.93
2019-05-05T06:11:04.426Z,2.10
2019-05-05T06:13:33.639Z,1.90
2019-05-05T06:16:04.011Z,1.67
2019-05-05T06:18:34.345Z,1.97
2019-05-05T06:21:04.393Z,2.10
2019-05-05T06:23:34.405Z,1.80
2019-05-05T06:26:06.892Z,1.77
2019-05-05T06:28:34.240Z,1.73
2019-05-05T06:31:04.709Z,2.27
2019-05-05T06:33:34.763Z,1.63
2019-05-05T06:36:03.878Z,1.77
2019-05-05T06:38:34.372Z,1.70
2019-05-05T06:41:28.103Z,1.90
2019-05-05T06:44:18.037Z,1.90
2019-05-05T06:47:01.454Z,1.77
2019-05-05T06:49:31.285Z,1.87
2019-05-05T06:51:59.916Z,2.33
2019-05-05T06:54:28.667Z,1.63
2019-05-05T06:56:57.088Z,2.20
2019-05-05T06:59:25.423Z,1.80
2019-05-05T07:01:53.783Z,1.60
2019-05-05T07:04:22.167Z,1.50
2019-05-05T07:06:56.218Z,1.63
2019-05-05T07:09:21.028Z,2.30
2019-05-05T07:11:49.364Z,1.47
2019-05-05T07:14:17.764Z,1.83
2019-05-05T07:16:46.097Z,1.73
2019-05-05T07:19:14.752Z,1.50
2019-05-05T07:21:43.676Z,1.93
2019-05-05T07:24:14.388Z,1.33
2019-05-05T07:26:44.539Z,2.07
2019-05-05T07:29:14.681Z,1.60
2019-05-05T07:31:43.758Z,1.70
2019-05-05T07:34:13.747Z,1.47
2019-05-05T07:36:44.907Z,1.20
2019-05-05T07:39:14.335Z,1.67
2019-05-05T07:41:44.811Z,2.00
2019-05-05T07:44:25.942Z,1.80
2019-05-05T07:46:44.072Z,1.67
2019-05-05T07:49:13.847Z,1.40
2019-05-05T07:51:44.253Z,1.60
2019-05-05T07:54:14.524Z,2.27
2019-05-05T07:56:44.402Z,1.47
2019-05-05T07:59:14.678Z,2.00
2019-05-05T08:01:45.813Z,1.60
2019-05-05T08:04:13.684Z,1.63
2019-05-05T08:06:44.532Z,1.77
2019-05-05T08:09:14.646Z,1.73
2019-05-05T08:11:43.590Z,1.60
2019-05-05T08:14:14.380Z,1.23
2019-05-05T08:17:07.266Z,1.63
2019-05-05T08:19:54.802Z,2.13
2019-05-05T08:22:23.611Z,1.80
2019-05-05T08:24:59.653Z,1.70
2019-05-05T08:27:46.042Z,2.23
2019-05-05T08:30:44.160Z,2.20
2019-05-05T08:33:14.095Z,1.90
2019-05-05T08:35:44.718Z,2.20
2019-05-05T08:38:13.808Z,2.40
2019-05-05T08:40:43.857Z,2.20
2019-05-05T08:43:13.854Z,2.33
2019-05-05T08:45:44.430Z,1.77
2019-05-05T08:48:14.260Z,1.50
2019-05-05T08:50:43.855Z,2.10
2019-05-05T08:53:13.830Z,2.03
2019-05-05T08:55:44.333Z,1.73
2019-05-05T08:58:14.626Z,2.30
2019-05-05T09:00:44.430Z,1.90
2019-05-05T09:03:13.984Z,1.93
2019-05-05T09:05:43.709Z,1.60
2019-05-05T09:08:13.817Z,1.93
2019-05-05T09:10:44.646Z,1.90
2019-05-05T09:13:14.275Z,1.70
2019-05-05T09:15:44.345Z,2.33
2019-05-05T09:18:14.134Z,2.30
2019-05-05T09:20:44.594Z,1.90
2019-05-05T09:23:14.778Z,2.10
2019-05-05T09:26:05.309Z,1.80
2019-05-05T09:28:41.768Z,2.03
2019-05-05T09:31:10.105Z,2.20
2019-05-05T09:33:38.500Z,1.70
2019-05-05T09:36:06.942Z,1.83
2019-05-05T09:38:35.568Z,1.93
2019-05-05T09:41:04.005Z,1.93
2019-05-05T09:43:34.454Z,2.53
2019-05-05T09:46:03.895Z,1.90
2019-05-05T09:48:33.558Z,1.60
2019-05-05T09:51:04.364Z,1.80
2019-05-05T09:53:34.401Z,1.57
2019-05-05T09:56:04.062Z,2.10
2019-05-05T09:58:34.601Z,1.60
2019-05-05T10:01:03.969Z,2.03
2019-05-05T10:03:34.083Z,1.60
2019-05-05T10:06:04.693Z,1.80
2019-05-05T10:08:34.076Z,2.30
2019-05-05T10:11:04.127Z,2.00
2019-05-05T10:13:33.610Z,1.60
2019-05-05T10:16:03.949Z,2.17
2019-05-05T10:18:35.482Z,1.70
2019-05-05T10:21:04.478Z,1.90
2019-05-05T10:23:34.271Z,1.73
2019-05-05T10:26:05.460Z,1.80
2019-05-05T10:28:34.105Z,1.70
2019-05-05T10:31:04.611Z,2.00
2019-05-05T10:33:36.048Z,2.07
2019-05-05T10:36:03.158Z,1.47
2019-05-05T10:38:34.001Z,1.70
2019-05-05T10:41:04.137Z,1.60
2019-05-05T10:43:34.226Z,1.30
2019-05-05T10:46:03.890Z,1.50
2019-05-05T10:48:34.060Z,1.90
2019-05-05T10:51:04.173Z,1.90
2019-05-05T10:53:32.742Z,1.77
2019-05-05T10:56:01.098Z,2.37
2019-05-05T10:58:29.490Z,1.80
2019-05-05T11:01:00.508Z,1.70
2019-05-05T11:03:29.225Z,2.23
2019-05-05T11:05:57.668Z,2.00
2019-05-05T11:08:26.972Z,2.60
2019-05-05T11:10:55.396Z,2.17
2019-05-05T11:13:24.033Z,2.27
2019-05-05T11:15:54.513Z,2.33
2019-05-05T11:18:23.776Z,2.10
2019-05-05T11:20:52.458Z,1.80
2019-05-05T11:23:20.989Z,2.90
2019-05-05T11:25:49.432Z,2.47
2019-05-05T11:28:18.828Z,2.03
2019-05-05T11:30:47.654Z,2.07
2019-05-05T11:33:31.332Z,2.37
2019-05-05T11:36:07.968Z,2.30
2019-05-05T11:38:36.599Z,2.60
2019-05-05T11:41:05.264Z,2.10
2019-05-05T11:43:33.896Z,2.10
2019-05-05T11:46:02.753Z,1.90
2019-05-05T11:48:31.111Z,2.40
2019-05-05T11:50:59.525Z,1.97
2019-05-05T11:53:27.875Z,1.90
2019-05-05T11:55:56.204Z,2.10
2019-05-05T11:58:24.961Z,1.90
2019-05-05T12:00:54.471Z,2.47
2019-05-05T12:03:23.207Z,2.10
2019-05-05T12:05:51.836Z,2.30
2019-05-05T12:08:20.296Z,3.00
2019-05-05T12:10:54.195Z,2.10
2019-05-05T12:13:22.818Z,2.27
2019-05-05T12:15:57.973Z,2.73
2019-05-05T12:18:26.326Z,2.40
2019-05-05T12:20:54.746Z,2.30
2019-05-05T12:23:23.225Z,2.47
2019-05-05T12:26:09.641Z,2.63
2019-05-05T12:28:56.919Z,2.10
2019-05-05T12:31:27.087Z,2.90
2019-05-05T12:33:55.495Z,2.90
2019-05-05T12:36:23.886Z,2.57
2019-05-05T12:38:54.420Z,2.27
2019-05-05T12:41:23.845Z,2.37
2019-05-05T12:43:54.951Z,2.63
2019-05-05T12:46:54.242Z,2.90
2019-05-05T12:49:25.348Z,2.20
2019-05-05T12:51:54.059Z,2.20
2019-05-05T12:54:24.490Z,2.10
2019-05-05T12:56:53.877Z,1.80
2019-05-05T12:59:25.078Z,2.50
2019-05-05T13:01:54.656Z,2.47
2019-05-05T13:04:24.603Z,2.20
2019-05-05T13:06:54.168Z,2.60
2019-05-05T13:09:24.347Z,2.23
2019-05-05T13:11:54.150Z,2.10
2019-05-05T13:14:22.785Z,2.10
2019-05-05T13:16:53.902Z,1.90
2019-05-05T13:19:27.922Z,2.43
2019-05-05T13:22:15.948Z,2.33
2019-05-05T13:25:04.650Z,1.97
2019-05-05T13:27:36.885Z,1.80
2019-05-05T13:30:06.393Z,1.90
2019-05-05T13:32:34.728Z,2.33
2019-05-05T13:35:04.067Z,2.23
2019-05-05T13:37:33.760Z,2.17
2019-05-05T13:40:04.379Z,1.77
2019-05-05T13:42:32.617Z,1.93
2019-05-05T13:45:10.732Z,1.67
2019-05-05T13:47:39.543Z,2.17
2019-05-05T13:50:14.813Z,1.87
2019-05-05T13:52:44.180Z,1.97
2019-05-05T13:55:13.953Z,2.00
2019-05-05T13:57:44.330Z,2.90
2019-05-05T14:00:15.776Z,2.20
2019-05-05T14:02:44.092Z,1.97
2019-05-05T14:05:13.480Z,2.50
2019-05-05T14:07:43.631Z,2.47
2019-05-05T14:10:14.391Z,2.07
2019-05-05T14:12:43.790Z,2.07
2019-05-05T14:15:15.490Z,1.97
2019-05-05T14:17:43.986Z,1.97
2019-05-05T14:20:14.661Z,2.00
2019-05-05T14:22:43.820Z,1.80
2019-05-05T14:25:19.156Z,1.50
2019-05-05T14:27:47.938Z,1.83
2019-05-05T14:30:44.367Z,2.30
2019-05-05T14:33:18.968Z,1.80
2019-05-05T14:36:09.445Z,2.20
2019-05-05T14:38:40.077Z,1.73
2019-05-05T14:41:08.845Z,1.67
2019-05-05T14:43:37.531Z,1.50
2019-05-05T14:46:06.455Z,2.13
2019-05-05T14:48:37.129Z,1.80
2019-05-05T14:51:05.399Z,2.67
2019-05-05T14:53:34.806Z,1.67
2019-05-05T14:56:04.663Z,1.50
2019-05-05T14:58:33.184Z,2.07
2019-05-05T15:01:01.525Z,1.93
2019-05-05T15:03:29.850Z,2.53
2019-05-05T15:06:08.332Z,1.90
2019-05-05T15:08:55.974Z,1.90
2019-05-05T15:11:39.280Z,2.10
2019-05-05T15:14:07.680Z,2.60
2019-05-05T15:16:35.998Z,2.17
2019-05-05T15:19:04.420Z,2.20
2019-05-05T15:21:33.996Z,2.23
2019-05-05T15:24:02.524Z,2.13
2019-05-05T15:26:31.237Z,2.30
2019-05-05T15:29:01.771Z,2.20
2019-05-05T15:31:29.648Z,1.97
2019-05-05T15:33:57.972Z,1.50
2019-05-05T15:36:26.339Z,1.93
2019-05-05T15:38:55.254Z,1.63
2019-05-05T15:41:23.784Z,1.87
2019-05-05T15:43:54.330Z,2.00
2019-05-05T15:46:24.413Z,1.93
2019-05-05T15:48:54.538Z,2.13
2019-05-05T15:51:23.710Z,1.80
2019-05-05T15:53:54.218Z,2.53
2019-05-05T15:56:24.487Z,1.80
2019-05-05T15:58:52.913Z,2.63
2019-05-05T16:01:21.251Z,2.23
2019-05-05T16:03:49.910Z,2.37
2019-05-05T16:06:18.584Z,1.97
2019-05-05T16:08:47.382Z,2.40
2019-05-05T16:11:15.808Z,1.77
2019-05-05T16:13:44.155Z,2.30
2019-05-05T16:16:37.610Z,2.70
2019-05-05T16:19:24.741Z,2.50
2019-05-05T16:22:00.556Z,2.80
2019-05-05T16:24:33.623Z,2.50
2019-05-05T16:27:01.877Z,2.70
2019-05-05T16:29:30.219Z,3.17
2019-05-05T16:31:58.913Z,5.20
2019-05-05T16:34:27.816Z,3.90
2019-05-05T16:36:57.001Z,3.77
2019-05-05T16:39:25.775Z,4.23
2019-05-05T16:41:54.574Z,5.10
2019-05-05T16:44:23.417Z,5.17
2019-05-05T16:46:53.829Z,5.50
2019-05-05T16:49:21.940Z,4.90
2019-05-05T16:52:03.929Z,4.70
2019-05-05T16:54:37.517Z,5.10
2019-05-05T16:57:05.931Z,4.77
2019-05-05T16:59:34.318Z,5.53
2019-05-05T17:02:04.580Z,4.70
2019-05-05T17:04:32.711Z,5.70
2019-05-05T17:07:01.051Z,4.23
2019-05-05T17:09:29.765Z,5.03
2019-05-05T17:12:10.533Z,5.00
2019-05-05T17:14:54.032Z,4.30
2019-05-05T17:17:31.217Z,5.53
2019-05-05T17:20:04.447Z,3.77
2019-05-05T17:22:36.571Z,3.70
2019-05-05T17:25:07.808Z,3.53
2019-05-05T17:27:47.832Z,4.10
2019-05-05T17:30:06.292Z,3.50
2019-05-05T17:32:34.656Z,4.37
2019-05-05T17:35:03.796Z,4.10
2019-05-05T17:37:33.561Z,3.57
2019-05-05T17:40:09.143Z,4.37
2019-05-05T17:42:45.012Z,5.70
2019-05-05T17:45:19.886Z,4.57
2019-05-05T17:47:53.954Z,5.27
2019-05-05T17:50:41.634Z,4.33
2019-05-05T17:53:24.343Z,4.60
2019-05-05T17:55:54.101Z,4.20
2019-05-05T17:58:24.700Z,5.10
2019-05-05T18:00:56.179Z,5.40
2019-05-05T18:03:24.822Z,4.80
2019-05-05T18:06:18.648Z,4.75
2019-05-05T18:08:50.064Z,4.90
2019-05-05T18:11:35.037Z,5.30
2019-05-05T18:14:06.552Z,5.40
2019-05-05T18:16:34.901Z,5.83
2019-05-05T18:19:04.478Z,5.10
2019-05-05T18:21:34.650Z,5.10
2019-05-05T18:24:03.288Z,5.80
2019-05-05T18:26:31.711Z,6.03
2019-05-05T18:29:03.792Z,4.73
2019-05-05T18:31:33.675Z,5.30
2019-05-05T18:34:04.012Z,4.80
2019-05-05T18:36:32.291Z,5.03
2019-05-05T18:39:00.725Z,5.00
2019-05-05T18:41:52.941Z,5.13
2019-05-05T18:44:26.392Z,5.50
2019-05-05T18:47:14.817Z,5.57
2019-05-05T18:49:42.108Z,4.50
2019-05-05T18:52:10.545Z,4.03
2019-05-05T18:54:39.312Z,5.27
2019-05-05T18:57:08.768Z,4.80
2019-05-05T18:59:37.125Z,5.40
2019-05-05T19:02:31.042Z,5.37
2019-05-05T19:05:17.508Z,4.67
2019-05-05T19:07:56.257Z,4.47
2019-05-05T19:10:25.433Z,5.40
2019-05-05T19:12:54.175Z,4.90
2019-05-05T19:15:24.411Z,5.10
2019-05-05T19:17:53.571Z,5.60
2019-05-05T19:20:28.104Z,4.40
2019-05-05T19:23:02.942Z,5.53
2019-05-05T19:25:31.069Z,5.07
2019-05-05T19:27:59.792Z,4.40
2019-05-05T19:30:28.319Z,6.13
2019-05-05T19:32:56.757Z,6.17
2019-05-05T19:35:40.144Z,5.40
2019-05-05T19:37:55.189Z,6.17
2019-05-05T19:40:24.377Z,6.17
2019-05-05T19:42:53.830Z,5.60
2019-05-05T19:45:24.102Z,6.50
2019-05-05T19:47:52.773Z,4.27
2019-05-05T19:50:34.321Z,5.40
2019-05-05T19:53:04.405Z,5.40
2019-05-05T19:55:33.825Z,4.80
2019-05-05T19:58:03.684Z,4.73
2019-05-05T20:00:32.085Z,4.97
2019-05-05T20:03:04.953Z,5.30
2019-05-05T20:05:30.592Z,7.03
2019-05-05T20:07:58.936Z,4.83
2019-05-05T20:10:27.300Z,5.30
2019-05-05T20:12:55.657Z,4.83
2019-05-05T20:15:31.056Z,5.20
2019-05-05T20:17:59.407Z,4.40
2019-05-05T20:20:28.030Z,5.40
2019-05-05T20:22:56.725Z,5.47
2019-05-05T20:25:25.249Z,6.60
2019-05-05T20:28:00.936Z,6.10
2019-05-05T20:30:29.317Z,5.73
2019-05-05T20:33:05.747Z,5.60
2019-05-05T20:35:41.541Z,5.03
2019-05-05T20:38:14.299Z,5.30
2019-05-05T20:40:44.345Z,5.53
2019-05-05T20:43:14.347Z,5.90
2019-05-05T20:45:44.242Z,5.10
2019-05-05T20:48:13.175Z,6.73
2019-05-05T20:50:43.755Z,5.40
2019-05-05T20:53:13.650Z,5.13
2019-05-05T20:55:42.033Z,4.40
2019-05-05T20:58:10.395Z,5.57
2019-05-05T21:00:39.080Z,4.47
2019-05-05T21:03:07.519Z,5.50
2019-05-05T21:05:35.864Z,4.47
2019-05-05T21:08:04.902Z,4.83
2019-05-05T21:10:34.756Z,4.90
2019-05-05T21:13:03.818Z,5.17
2019-05-05T21:15:34.032Z,5.00
2019-05-05T21:18:04.652Z,5.73
2019-05-05T21:20:34.728Z,6.30
2019-05-05T21:23:08.782Z,4.70
2019-05-05T21:25:39.264Z,5.70
2019-05-05T21:28:07.591Z,5.20
2019-05-05T21:30:35.940Z,5.80
2019-05-05T21:33:04.669Z,5.90
2019-05-05T21:35:34.851Z,5.50
2019-05-05T21:38:04.751Z,5.20
2019-05-05T21:40:34.620Z,4.40
2019-05-05T21:43:04.897Z,5.23
2019-05-05T21:45:34.641Z,5.70
2019-05-05T21:48:04.316Z,5.30
2019-05-05T21:50:38.300Z,6.33
2019-05-05T21:53:14.007Z,5.17
2019-05-05T21:55:49.763Z,4.20
2019-05-05T21:58:24.705Z,6.77
2019-05-05T22:01:07.953Z,5.77
2019-05-05T22:03:37.374Z,5.63
2019-05-05T22:06:05.967Z,5.90
2019-05-05T22:08:34.732Z,4.93
2019-05-05T22:11:04.012Z,5.93
2019-05-05T22:13:36.168Z,4.80
2019-05-05T22:16:04.069Z,6.13
2019-05-05T22:18:33.125Z,5.13
2019-05-05T22:21:06.951Z,5.63
2019-05-05T22:23:36.776Z,5.87
2019-05-05T22:26:05.604Z,5.87
2019-05-05T22:28:34.249Z,6.00
2019-05-05T22:31:04.760Z,5.77
2019-05-05T22:33:34.036Z,6.20
2019-05-05T22:36:04.475Z,6.00
2019-05-05T22:38:33.920Z,6.40
2019-05-05T22:41:02.556Z,6.17
2019-05-05T22:43:30.964Z,7.00
2019-05-05T22:45:59.317Z,6.43
2019-05-05T22:48:27.733Z,7.40
2019-05-05T22:50:56.083Z,5.63
2019-05-05T22:53:24.500Z,8.03
2019-05-05T22:55:52.856Z,6.80
2019-05-05T22:58:21.209Z,6.30
2019-05-05T23:00:49.543Z,6.63
2019-05-05T23:03:25.430Z,6.87
2019-05-05T23:05:57.695Z,6.20
2019-05-05T23:08:26.039Z,6.20
2019-05-05T23:10:54.552Z,6.17
2019-05-05T23:13:22.951Z,5.93
2019-05-05T23:16:08.429Z,6.50
2019-05-05T23:18:37.050Z,6.30
2019-05-05T23:21:17.152Z,6.77
2019-05-05T23:24:10.872Z,6.50
2019-05-05T23:26:40.114Z,6.60
2019-05-05T23:29:08.753Z,7.33
2019-05-05T23:31:37.399Z,6.97
2019-05-05T23:34:05.729Z,6.10
2019-05-05T23:36:34.108Z,6.60
2019-05-05T23:39:04.356Z,6.90
2019-05-05T23:41:34.718Z,6.13
2019-05-05T23:44:03.683Z,7.80
2019-05-05T23:46:32.133Z,6.77
2019-05-05T23:49:00.469Z,7.47
2019-05-05T23:51:29.105Z,6.70
2019-05-05T23:53:57.814Z,6.30
2019-05-05T23:56:26.165Z,7.00
2019-05-05T23:58:55.062Z,7.53
